createdAt,value
2022-12-14T00:01:28.161Z,26.30
2022-12-14T00:03:56.210Z,23.87
2022-12-14T00:06:28.712Z,25.03
2022-12-14T00:08:58.936Z,25.00
2022-12-14T00:11:26.593Z,25.03
2022-12-14T00:13:58.785Z,24.53
2022-12-14T00:16:28.570Z,26.90
2022-12-14T00:18:57.158Z,24.10
2022-12-14T00:21:25.439Z,25.30
2022-12-14T00:23:54.534Z,26.70
2022-12-14T00:26:26.668Z,23.53
2022-12-14T00:28:55.120Z,29.07
2022-12-14T00:31:23.568Z,29.37
2022-12-14T00:33:51.072Z,25.97
2022-12-14T00:36:18.392Z,25.83
2022-12-14T00:38:45.874Z,25.53
2022-12-14T00:41:12.995Z,25.07
2022-12-14T00:43:40.262Z,23.50
2022-12-14T00:46:07.756Z,27.73
2022-12-14T00:48:34.718Z,24.17
2022-12-14T00:51:02.008Z,25.30
2022-12-14T00:53:29.882Z,25.67
2022-12-14T00:55:57.013Z,23.97
2022-12-14T00:58:25.539Z,26.33
2022-12-14T01:01:04.781Z,25.43
2022-12-14T01:03:32.425Z,24.53
2022-12-14T01:06:00.091Z,26.03
2022-12-14T01:08:35.371Z,26.97
2022-12-14T01:11:09.954Z,23.07
2022-12-14T01:13:37.932Z,23.10
2022-12-14T01:16:14.289Z,24.70
2022-12-14T01:18:43.019Z,25.93
2022-12-14T01:21:20.254Z,25.37
2022-12-14T01:23:48.526Z,23.67
2022-12-14T01:26:16.935Z,24.83
2022-12-14T01:28:45.095Z,23.43
2022-12-14T01:31:14.665Z,26.33
2022-12-14T01:33:42.246Z,23.70
2022-12-14T01:36:12.219Z,22.63
2022-12-14T01:38:39.814Z,23.87
2022-12-14T01:41:07.803Z,23.63
2022-12-14T01:43:49.503Z,23.37
2022-12-14T01:46:21.688Z,22.57
2022-12-14T01:48:50.373Z,24.17
2022-12-14T01:51:18.047Z,23.80
2022-12-14T01:53:45.759Z,24.27
2022-12-14T01:56:13.346Z,23.20
2022-12-14T01:58:41.433Z,22.10
2022-12-14T02:01:11.361Z,23.57
2022-12-14T02:03:50.092Z,23.00
2022-12-14T02:06:35.045Z,22.67
2022-12-14T02:09:11.284Z,23.80
2022-12-14T02:11:57.162Z,22.80
2022-12-14T02:14:24.696Z,23.40
2022-12-14T02:16:57.398Z,28.50
2022-12-14T02:19:24.880Z,30.73
2022-12-14T02:21:54.934Z,29.00
2022-12-14T02:24:46.433Z,26.40
2022-12-14T02:27:35.200Z,24.53
2022-12-14T02:30:06.650Z,25.77
2022-12-14T02:32:45.427Z,26.50
2022-12-14T02:35:36.932Z,24.67
2022-12-14T02:38:48.816Z,24.63
2022-12-14T02:41:20.566Z,25.67
2022-12-14T02:44:16.397Z,24.63
2022-12-14T02:46:59.690Z,26.30
2022-12-14T02:49:57.374Z,25.97
2022-12-14T02:52:47.930Z,24.73
2022-12-14T02:55:33.936Z,24.07
2022-12-14T02:58:10.402Z,24.87
2022-12-14T03:00:38.329Z,23.77
2022-12-14T03:03:06.579Z,24.07
2022-12-14T03:05:34.640Z,25.90
2022-12-14T03:08:06.300Z,25.60
2022-12-14T03:10:46.883Z,25.07
2022-12-14T03:13:22.142Z,23.37
2022-12-14T03:15:59.980Z,25.77
2022-12-14T03:18:32.781Z,26.10
2022-12-14T03:21:03.178Z,22.40
2022-12-14T03:23:34.830Z,25.77
2022-12-14T03:26:10.567Z,27.50
2022-12-14T03:29:08.810Z,24.07
2022-12-14T03:31:39.875Z,24.60
2022-12-14T03:34:13.037Z,25.00
2022-12-14T03:36:43.438Z,24.13
2022-12-14T03:39:17.339Z,24.77
2022-12-14T03:42:22.846Z,22.33
2022-12-14T03:44:55.894Z,25.03
2022-12-14T03:47:46.859Z,23.73
2022-12-14T03:50:35.874Z,23.17
2022-12-14T03:53:14.907Z,22.70
2022-12-14T03:55:53.703Z,23.03
2022-12-14T03:58:40.172Z,21.10
2022-12-14T04:01:16.597Z,24.07
2022-12-14T04:04:17.892Z,22.27
2022-12-14T04:06:50.695Z,22.50
2022-12-14T04:09:17.721Z,22.73
2022-12-14T04:12:13.000Z,22.10
2022-12-14T04:15:10.433Z,23.13
2022-12-14T04:17:58.244Z,21.30
2022-12-14T04:20:52.073Z,20.50
2022-12-14T04:24:00.886Z,21.83
2022-12-14T04:26:31.797Z,20.17
2022-12-14T04:29:22.635Z,21.63
2022-12-14T04:31:55.436Z,21.83
2022-12-14T04:34:27.155Z,20.93
2022-12-14T04:36:57.773Z,25.23
2022-12-14T04:39:56.420Z,22.70
2022-12-14T04:42:29.527Z,24.90
2022-12-14T04:45:07.849Z,23.93
2022-12-14T04:47:41.043Z,21.13
2022-12-14T04:50:22.621Z,22.50
2022-12-14T04:52:55.272Z,19.83
2022-12-14T04:55:49.911Z,22.53
2022-12-14T04:58:25.776Z,22.50
2022-12-14T05:01:17.315Z,19.00
2022-12-14T05:04:34.278Z,20.03
2022-12-14T05:07:22.408Z,21.57
2022-12-14T05:09:59.886Z,18.77
2022-12-14T05:12:47.702Z,19.77
2022-12-14T05:15:26.455Z,21.33
2022-12-14T05:17:54.564Z,20.93
2022-12-14T05:20:24.360Z,20.43
2022-12-14T05:22:51.430Z,21.67
2022-12-14T05:25:18.249Z,23.07
2022-12-14T05:27:45.094Z,21.57
2022-12-14T05:30:12.587Z,23.67
2022-12-14T05:32:39.974Z,22.10
2022-12-14T05:35:07.533Z,21.77
2022-12-14T05:37:34.261Z,19.03
2022-12-14T05:40:00.985Z,21.47
2022-12-14T05:42:27.728Z,22.63
2022-12-14T05:44:55.155Z,28.77
2022-12-14T05:47:22.357Z,24.93
2022-12-14T05:49:49.723Z,17.00
2022-12-14T05:52:17.366Z,19.43
2022-12-14T05:54:44.241Z,18.20
2022-12-14T05:57:11.189Z,16.97
2022-12-14T05:59:38.372Z,14.80
2022-12-14T06:02:05.429Z,17.07
2022-12-14T06:04:32.975Z,19.07
2022-12-14T06:07:00.135Z,24.03
2022-12-14T06:09:27.284Z,17.73
2022-12-14T06:11:54.767Z,20.97
2022-12-14T06:14:24.211Z,20.07
2022-12-14T06:16:51.180Z,24.70
2022-12-14T06:19:18.089Z,25.43
2022-12-14T06:21:45.125Z,22.23
2022-12-14T06:24:13.197Z,21.90
2022-12-14T06:26:41.036Z,17.57
2022-12-14T06:29:13.302Z,20.50
2022-12-14T06:31:40.223Z,19.83
2022-12-14T06:34:07.291Z,20.03
2022-12-14T06:36:36.833Z,19.83
2022-12-14T06:39:12.500Z,20.30
2022-12-14T06:41:40.777Z,19.77
2022-12-14T06:44:13.300Z,16.70
2022-12-14T06:46:40.665Z,20.97
2022-12-14T06:49:07.976Z,22.80
2022-12-14T06:51:41.728Z,22.57
2022-12-14T06:54:11.424Z,23.83
2022-12-14T06:56:38.845Z,23.87
2022-12-14T06:59:05.930Z,21.50
2022-12-14T07:01:32.912Z,19.63
2022-12-14T07:04:00.194Z,22.43
2022-12-14T07:06:31.455Z,24.53
2022-12-14T07:08:59.901Z,22.93
2022-12-14T07:11:28.196Z,23.93
2022-12-14T07:13:55.949Z,23.90
2022-12-14T07:16:27.322Z,22.47
2022-12-14T07:18:55.112Z,21.37
2022-12-14T07:21:22.934Z,20.00
2022-12-14T07:23:52.424Z,26.63
2022-12-14T07:26:23.797Z,22.20
2022-12-14T07:28:51.063Z,18.90
2022-12-14T07:31:26.930Z,20.77
2022-12-14T07:33:55.645Z,20.27
2022-12-14T07:36:24.458Z,20.37
2022-12-14T07:38:52.383Z,21.00
2022-12-14T07:41:28.007Z,22.33
2022-12-14T07:43:55.754Z,24.40
2022-12-14T07:46:27.794Z,23.70
2022-12-14T07:48:57.922Z,25.87
2022-12-14T07:51:30.624Z,27.43
2022-12-14T07:53:58.272Z,29.70
2022-12-14T07:56:31.917Z,27.40
2022-12-14T07:59:00.701Z,28.90
2022-12-14T08:01:30.608Z,28.63
2022-12-14T08:04:19.835Z,27.37
2022-12-14T08:06:48.514Z,26.57
2022-12-14T08:09:16.836Z,26.33
2022-12-14T08:11:44.027Z,27.80
2022-12-14T08:14:19.709Z,25.70
2022-12-14T08:16:48.193Z,26.83
2022-12-14T08:19:17.753Z,29.23
2022-12-14T08:21:45.835Z,28.03
2022-12-14T08:24:14.016Z,29.30
2022-12-14T08:26:41.164Z,30.97
2022-12-14T08:29:08.485Z,29.33
2022-12-14T08:31:35.408Z,31.03
2022-12-14T08:34:02.869Z,30.63
2022-12-14T08:36:33.989Z,32.73
2022-12-14T08:39:03.376Z,32.80
2022-12-14T08:41:30.892Z,34.37
2022-12-14T08:44:00.071Z,37.20
2022-12-14T08:46:29.036Z,34.97
2022-12-14T08:48:56.686Z,30.30
2022-12-14T08:51:25.694Z,32.07
2022-12-14T08:53:53.191Z,31.90
2022-12-14T08:56:23.517Z,32.43
2022-12-14T08:58:50.552Z,33.33
2022-12-14T09:01:20.950Z,30.93
2022-12-14T09:03:48.802Z,31.37
2022-12-14T09:06:21.268Z,31.53
2022-12-14T09:08:49.848Z,31.07
2022-12-14T09:11:19.179Z,32.60
2022-12-14T09:13:47.086Z,31.13
2022-12-14T09:16:16.162Z,30.93
2022-12-14T09:18:44.498Z,40.23
2022-12-14T09:21:12.010Z,43.63
2022-12-14T09:23:41.821Z,42.07
2022-12-14T09:26:15.167Z,35.37
2022-12-14T09:28:45.188Z,34.40
2022-12-14T09:31:14.558Z,32.77
2022-12-14T09:33:41.873Z,32.47
2022-12-14T09:36:12.855Z,26.37
2022-12-14T09:38:45.521Z,26.63
2022-12-14T09:41:30.254Z,27.30
2022-12-14T09:44:00.043Z,24.57
2022-12-14T09:46:34.215Z,23.47
2022-12-14T09:49:02.635Z,22.47
2022-12-14T09:51:36.971Z,20.43
2022-12-14T09:54:10.890Z,20.53
2022-12-14T09:56:40.126Z,22.67
2022-12-14T09:59:14.428Z,20.97
2022-12-14T10:02:28.915Z,20.37
2022-12-14T10:05:12.185Z,19.77
2022-12-14T10:07:45.040Z,21.07
2022-12-14T10:10:44.340Z,23.83
2022-12-14T10:13:27.563Z,22.13
2022-12-14T10:16:06.125Z,22.83
2022-12-14T10:19:01.146Z,23.73
2022-12-14T10:21:45.361Z,21.53
2022-12-14T10:24:21.989Z,22.43
2022-12-14T10:26:52.240Z,22.07
2022-12-14T10:29:44.741Z,23.53
2022-12-14T10:32:20.283Z,22.37
2022-12-14T10:34:47.962Z,23.13
2022-12-14T10:37:36.051Z,22.20
2022-12-14T10:40:17.598Z,23.50
2022-12-14T10:43:21.364Z,22.53
2022-12-14T10:45:52.229Z,22.23
2022-12-14T10:48:31.386Z,23.00
2022-12-14T10:51:08.989Z,24.13
2022-12-14T10:53:48.233Z,27.53
2022-12-14T10:56:21.960Z,22.57
2022-12-14T10:59:34.898Z,23.37
2022-12-14T11:02:14.200Z,21.67
2022-12-14T11:04:55.075Z,20.03
2022-12-14T11:07:36.522Z,19.53
2022-12-14T11:10:25.098Z,19.60
2022-12-14T11:13:13.251Z,21.90
2022-12-14T11:15:45.494Z,20.80
2022-12-14T11:18:12.578Z,20.10
2022-12-14T11:21:06.121Z,20.50
2022-12-14T11:23:46.071Z,19.17
2022-12-14T11:26:33.793Z,19.53
2022-12-14T11:29:03.307Z,19.43
2022-12-14T11:31:45.004Z,18.03
2022-12-14T11:34:30.082Z,19.43
2022-12-14T11:37:10.384Z,18.63
2022-12-14T11:39:42.821Z,20.87
2022-12-14T11:42:20.309Z,18.83
2022-12-14T11:44:49.660Z,21.27
2022-12-14T11:47:22.444Z,20.13
2022-12-14T11:49:50.654Z,22.37
2022-12-14T11:52:25.207Z,19.50
2022-12-14T11:55:00.960Z,19.23
2022-12-14T11:57:58.438Z,23.10
2022-12-14T12:00:30.856Z,21.03
2022-12-14T12:03:23.303Z,21.63
2022-12-14T12:05:51.264Z,21.03
2022-12-14T12:08:28.797Z,20.37
2022-12-14T12:11:20.112Z,18.53
2022-12-14T12:13:52.389Z,26.07
2022-12-14T12:16:22.851Z,22.03
2022-12-14T12:19:00.672Z,23.03
2022-12-14T12:21:32.696Z,21.10
2022-12-14T12:24:11.408Z,22.60
2022-12-14T12:26:43.016Z,20.70
2022-12-14T12:29:38.791Z,19.70
2022-12-14T12:32:14.306Z,20.50
2022-12-14T12:34:55.966Z,19.63
2022-12-14T12:37:47.049Z,24.03
2022-12-14T12:40:34.459Z,22.70
2022-12-14T12:43:20.331Z,22.13
2022-12-14T12:45:53.300Z,22.70
2022-12-14T12:48:23.247Z,22.00
2022-12-14T12:50:54.800Z,23.40
2022-12-14T12:53:52.629Z,24.53
2022-12-14T12:56:25.757Z,23.43
2022-12-14T12:58:53.698Z,20.83
2022-12-14T13:01:34.191Z,23.70
2022-12-14T13:04:10.461Z,22.10
2022-12-14T13:06:50.633Z,20.43
2022-12-14T13:09:46.110Z,20.47
2022-12-14T13:12:47.900Z,21.17
2022-12-14T13:15:26.151Z,21.27
2022-12-14T13:18:02.582Z,20.00
2022-12-14T13:20:32.902Z,17.63
2022-12-14T13:23:15.175Z,21.53
2022-12-14T13:26:56.275Z,19.50
2022-12-14T13:29:33.246Z,17.10
2022-12-14T13:32:19.622Z,20.73
2022-12-14T13:34:52.279Z,24.13
2022-12-14T13:37:45.052Z,21.97
2022-12-14T13:40:30.249Z,24.07
2022-12-14T13:43:20.798Z,21.97
2022-12-14T13:45:49.625Z,21.33
2022-12-14T13:48:26.503Z,20.37
2022-12-14T13:51:02.028Z,21.33
2022-12-14T13:53:59.240Z,20.93
2022-12-14T13:56:33.918Z,22.50
2022-12-14T13:59:05.626Z,19.93
2022-12-14T14:01:47.618Z,23.37
2022-12-14T14:04:27.491Z,20.30
2022-12-14T14:07:15.536Z,20.27
2022-12-14T14:10:04.723Z,21.73
2022-12-14T14:12:34.561Z,20.70
2022-12-14T14:15:28.314Z,20.03
2022-12-14T14:18:01.952Z,20.97
2022-12-14T14:20:34.656Z,20.57
2022-12-14T14:23:18.067Z,24.20
2022-12-14T14:25:48.768Z,22.70
2022-12-14T14:28:22.776Z,22.87
2022-12-14T14:30:54.262Z,18.87
2022-12-14T14:33:46.532Z,22.67
2022-12-14T14:36:33.921Z,20.73
2022-12-14T14:39:14.325Z,18.47
2022-12-14T14:41:52.471Z,21.23
2022-12-14T14:44:33.499Z,19.30
2022-12-14T14:47:07.423Z,19.67
2022-12-14T14:49:39.365Z,19.40
2022-12-14T14:52:40.307Z,17.87
2022-12-14T14:55:52.044Z,16.93
2022-12-14T14:58:26.768Z,20.17
2022-12-14T15:01:06.218Z,19.10
2022-12-14T15:03:45.270Z,19.00
2022-12-14T15:06:19.865Z,19.90
2022-12-14T15:09:12.485Z,20.83
2022-12-14T15:11:50.838Z,21.30
2022-12-14T15:14:33.123Z,19.93
2022-12-14T15:17:12.481Z,20.97
2022-12-14T15:19:40.892Z,20.80
2022-12-14T15:22:13.052Z,21.33
2022-12-14T15:24:42.880Z,19.03
2022-12-14T15:27:37.065Z,20.87
2022-12-14T15:30:06.969Z,22.87
2022-12-14T15:32:34.011Z,21.23
2022-12-14T15:35:05.495Z,19.60
2022-12-14T15:37:50.046Z,20.60
2022-12-14T15:40:22.846Z,21.23
2022-12-14T15:42:52.662Z,21.77
2022-12-14T15:45:31.761Z,22.23
2022-12-14T15:48:23.143Z,26.20
2022-12-14T15:51:04.604Z,25.07
2022-12-14T15:53:35.979Z,26.37
2022-12-14T15:56:31.107Z,26.10
2022-12-14T15:59:01.250Z,24.97
2022-12-14T16:01:37.663Z,22.43
2022-12-14T16:04:12.557Z,23.07
2022-12-14T16:07:19.131Z,22.33
2022-12-14T16:09:49.881Z,22.10
2022-12-14T16:12:24.978Z,22.00
2022-12-14T16:14:58.481Z,20.97
2022-12-14T16:17:34.082Z,21.30
2022-12-14T16:20:11.508Z,22.83
2022-12-14T16:22:40.716Z,23.40
2022-12-14T16:25:07.881Z,21.50
2022-12-14T16:27:42.425Z,24.90
2022-12-14T16:30:30.790Z,22.23
2022-12-14T16:33:16.955Z,23.60
2022-12-14T16:35:45.625Z,21.03
2022-12-14T16:38:15.601Z,22.27
2022-12-14T16:41:03.366Z,22.03
2022-12-14T16:43:39.644Z,23.13
2022-12-14T16:46:08.116Z,22.17
2022-12-14T16:48:43.883Z,21.50
2022-12-14T16:51:38.046Z,21.40
2022-12-14T16:54:24.799Z,22.67
2022-12-14T16:57:00.404Z,23.37
2022-12-14T16:59:42.919Z,26.47
2022-12-14T17:02:39.516Z,27.47
2022-12-14T17:05:13.725Z,27.07
2022-12-14T17:07:40.626Z,25.73
2022-12-14T17:10:16.591Z,30.07
2022-12-14T17:12:47.454Z,26.13
2022-12-14T17:15:16.044Z,31.50
2022-12-14T17:17:45.388Z,27.43
2022-12-14T17:20:36.998Z,28.27
2022-12-14T17:23:07.483Z,25.70
2022-12-14T17:25:34.613Z,25.57
2022-12-14T17:28:01.932Z,25.80
2022-12-14T17:30:29.569Z,27.83
2022-12-14T17:32:57.999Z,29.43
2022-12-14T17:35:33.378Z,27.90
2022-12-14T17:38:00.264Z,31.43
2022-12-14T17:40:28.536Z,28.63
2022-12-14T17:42:58.520Z,27.17
2022-12-14T17:45:28.662Z,26.43
2022-12-14T17:47:56.714Z,28.10
2022-12-14T17:50:25.323Z,26.47
2022-12-14T17:52:52.211Z,26.43
2022-12-14T17:55:24.406Z,27.37
2022-12-14T17:57:51.604Z,25.33
2022-12-14T18:00:42.119Z,29.07
2022-12-14T18:03:11.565Z,26.00
2022-12-14T18:05:44.944Z,27.37
2022-12-14T18:08:15.420Z,28.10
2022-12-14T18:10:42.614Z,29.67
2022-12-14T18:13:11.103Z,28.17
2022-12-14T18:15:50.634Z,26.73
2022-12-14T18:18:22.102Z,28.77
2022-12-14T18:20:52.779Z,28.27
2022-12-14T18:23:22.001Z,26.27
2022-12-14T18:25:54.325Z,24.80
2022-12-14T18:28:21.837Z,23.50
2022-12-14T18:30:52.969Z,26.60
2022-12-14T18:33:22.920Z,27.83
2022-12-14T18:35:53.889Z,27.43
2022-12-14T18:38:21.307Z,25.30
2022-12-14T18:40:50.550Z,26.33
2022-12-14T18:43:40.186Z,27.57
2022-12-14T18:46:10.416Z,25.93
2022-12-14T18:48:37.634Z,27.90
2022-12-14T18:51:05.172Z,27.27
2022-12-14T18:53:32.886Z,25.13
2022-12-14T18:56:01.350Z,25.70
2022-12-14T18:58:29.188Z,27.03
2022-12-14T19:00:58.664Z,25.07
2022-12-14T19:03:26.677Z,26.17
2022-12-14T19:06:42.431Z,23.63
2022-12-14T19:09:00.290Z,24.13
2022-12-14T19:11:42.025Z,26.47
2022-12-14T19:14:09.606Z,22.77
2022-12-14T19:16:37.105Z,24.57
2022-12-14T19:19:04.493Z,23.50
2022-12-14T19:21:31.948Z,24.77
2022-12-14T19:24:02.099Z,21.30
2022-12-14T19:26:30.770Z,19.27
2022-12-14T19:28:57.812Z,24.00
2022-12-14T19:31:25.178Z,23.93
2022-12-14T19:33:53.700Z,23.77
2022-12-14T19:36:20.968Z,23.50
2022-12-14T19:38:49.570Z,24.27
2022-12-14T19:41:17.859Z,25.00
2022-12-14T19:43:44.735Z,24.13
2022-12-14T19:46:13.613Z,24.60
2022-12-14T19:48:40.502Z,23.40
2022-12-14T19:51:12.941Z,23.40
2022-12-14T19:53:42.518Z,26.80
2022-12-14T19:56:10.031Z,27.63
2022-12-14T19:58:36.867Z,26.23
2022-12-14T20:01:11.897Z,24.63
2022-12-14T20:03:39.500Z,25.30
2022-12-14T20:06:07.093Z,24.40
2022-12-14T20:08:34.634Z,25.50
2022-12-14T20:11:09.602Z,27.30
2022-12-14T20:13:37.103Z,26.60
2022-12-14T20:16:04.302Z,25.43
2022-12-14T20:18:31.634Z,25.67
2022-12-14T20:21:03.591Z,27.47
2022-12-14T20:23:33.231Z,25.20
2022-12-14T20:26:01.938Z,24.80
2022-12-14T20:28:29.182Z,25.07
2022-12-14T20:30:56.000Z,25.57
2022-12-14T20:33:29.684Z,24.57
2022-12-14T20:35:57.588Z,25.17
2022-12-14T20:38:24.814Z,26.83
2022-12-14T20:40:51.981Z,26.67
2022-12-14T20:43:19.210Z,31.37
2022-12-14T20:45:46.620Z,27.40
2022-12-14T20:48:14.121Z,27.97
2022-12-14T20:50:43.064Z,25.83
2022-12-14T20:53:10.282Z,27.33
2022-12-14T20:55:37.443Z,30.43
2022-12-14T20:58:04.793Z,28.13
2022-12-14T21:00:32.198Z,27.33
2022-12-14T21:02:59.502Z,26.77
2022-12-14T21:05:26.836Z,28.33
2022-12-14T21:07:54.001Z,25.03
2022-12-14T21:10:21.170Z,26.37
2022-12-14T21:12:49.013Z,28.00
2022-12-14T21:15:16.298Z,26.83
2022-12-14T21:17:43.508Z,25.77
2022-12-14T21:20:11.522Z,24.33
2022-12-14T21:22:39.030Z,26.10
2022-12-14T21:25:07.322Z,27.53
2022-12-14T21:27:38.605Z,27.00
2022-12-14T21:30:10.990Z,28.40
2022-12-14T21:32:39.162Z,27.73
2022-12-14T21:35:06.735Z,27.73
2022-12-14T21:37:34.030Z,26.90
2022-12-14T21:40:03.741Z,28.00
2022-12-14T21:42:31.130Z,28.80
2022-12-14T21:44:58.344Z,28.57
2022-12-14T21:47:28.549Z,25.37
2022-12-14T21:49:57.134Z,29.53
2022-12-14T21:52:26.381Z,28.10
2022-12-14T21:54:53.781Z,28.17
2022-12-14T21:57:41.842Z,26.13
2022-12-14T22:00:11.066Z,28.47
2022-12-14T22:02:38.538Z,27.47
2022-12-14T22:05:06.251Z,28.63
2022-12-14T22:07:34.433Z,27.17
2022-12-14T22:10:02.295Z,28.33
2022-12-14T22:12:29.714Z,27.33
2022-12-14T22:14:56.629Z,26.30
2022-12-14T22:17:23.865Z,24.47
2022-12-14T22:19:52.153Z,27.70
2022-12-14T22:22:19.064Z,28.03
2022-12-14T22:24:49.537Z,29.10
2022-12-14T22:27:16.794Z,28.00
2022-12-14T22:29:43.977Z,27.50
2022-12-14T22:32:14.886Z,29.53
2022-12-14T22:34:42.619Z,27.77
2022-12-14T22:37:10.085Z,28.37
2022-12-14T22:39:37.511Z,27.57
2022-12-14T22:42:04.978Z,26.93
2022-12-14T22:44:32.397Z,25.43
2022-12-14T22:46:59.612Z,27.63
2022-12-14T22:49:26.657Z,28.33
2022-12-14T22:51:53.967Z,25.77
2022-12-14T22:54:27.106Z,26.83
2022-12-14T22:57:15.174Z,26.17
2022-12-14T22:59:54.208Z,23.53
2022-12-14T23:02:21.731Z,22.40
2022-12-14T23:04:49.791Z,25.47
2022-12-14T23:07:18.025Z,24.97
2022-12-14T23:10:04.044Z,24.83
2022-12-14T23:12:51.193Z,24.87
2022-12-14T23:15:37.648Z,25.50
2022-12-14T23:18:25.651Z,27.03
2022-12-14T23:21:11.516Z,23.70
2022-12-14T23:23:58.582Z,26.63
2022-12-14T23:26:44.708Z,23.53
2022-12-14T23:29:30.910Z,25.37
2022-12-14T23:32:17.867Z,25.10
2022-12-14T23:35:03.930Z,25.33
2022-12-14T23:37:50.517Z,23.33
2022-12-14T23:40:36.667Z,23.57
2022-12-14T23:43:33.138Z,23.13
2022-12-14T23:46:19.627Z,23.70
2022-12-14T23:49:08.217Z,24.07
2022-12-14T23:51:57.607Z,23.20
2022-12-14T23:54:43.561Z,23.00
2022-12-14T23:57:29.491Z,22.90
